createdAt,value
2023-03-02T00:01:10.610Z,0.00
2023-03-02T00:03:41.126Z,0.10
2023-03-02T00:06:09.998Z,0.20
2023-03-02T00:08:38.571Z,0.30
2023-03-02T00:11:05.902Z,0.50
2023-03-02T00:13:36.139Z,0.60
2023-03-02T00:16:03.533Z,0.70
2023-03-02T00:18:30.630Z,0.60
2023-03-02T00:20:57.679Z,0.60
2023-03-02T00:23:25.015Z,0.60
2023-03-02T00:25:52.330Z,0.50
2023-03-02T00:28:19.502Z,0.70
2023-03-02T00:30:46.720Z,0.70
2023-03-02T00:33:14.016Z,0.70
2023-03-02T00:35:42.021Z,0.60
2023-03-02T00:38:09.247Z,0.60
2023-03-02T00:40:36.968Z,0.50
2023-03-02T00:43:04.394Z,0.50
2023-03-02T00:45:31.702Z,0.60
2023-03-02T00:47:58.847Z,0.60
2023-03-02T00:50:26.284Z,0.50
2023-03-02T00:52:53.581Z,0.40
2023-03-02T00:55:21.068Z,0.30
2023-03-02T00:57:55.162Z,0.30
2023-03-02T01:00:23.295Z,0.20
2023-03-02T01:02:51.192Z,0.20
2023-03-02T01:05:18.479Z,0.10
2023-03-02T01:07:45.765Z,0.20
2023-03-02T01:10:13.577Z,0.10
2023-03-02T01:12:40.999Z,0.00
2023-03-02T01:15:10.601Z,0.00
2023-03-02T01:17:37.805Z,0.00
2023-03-02T01:20:05.959Z,0.00
2023-03-02T01:22:33.133Z,0.00
2023-03-02T01:25:00.424Z,0.10
2023-03-02T01:27:27.573Z,0.10
2023-03-02T01:29:54.980Z,0.10
2023-03-02T01:32:22.324Z,0.00
2023-03-02T01:34:49.496Z,-0.10
2023-03-02T01:37:16.660Z,-0.20
2023-03-02T01:39:43.810Z,-0.20
2023-03-02T01:42:10.989Z,-0.20
2023-03-02T01:44:43.031Z,-0.30
2023-03-02T01:47:35.381Z,-0.30
2023-03-02T01:50:25.505Z,-0.10
2023-03-02T01:52:54.920Z,-0.10
2023-03-02T01:55:26.664Z,-0.20
2023-03-02T01:57:55.840Z,-0.30
2023-03-02T02:00:37.691Z,-0.30
2023-03-02T02:03:22.296Z,-0.30
2023-03-02T02:06:19.058Z,-0.40
2023-03-02T02:08:47.696Z,-0.40
2023-03-02T02:11:15.403Z,-0.40
2023-03-02T02:13:43.722Z,-0.40
2023-03-02T02:16:10.966Z,-0.40
2023-03-02T02:18:41.228Z,-0.40
2023-03-02T02:21:09.324Z,-0.40
2023-03-02T02:23:48.746Z,-0.40
2023-03-02T02:26:23.680Z,-0.40
2023-03-02T02:29:02.604Z,-0.50
2023-03-02T02:31:42.978Z,-0.40
2023-03-02T02:34:13.197Z,-0.40
2023-03-02T02:36:45.387Z,-0.50
2023-03-02T02:39:29.326Z,-0.50
2023-03-02T02:42:00.969Z,-0.50
2023-03-02T02:44:28.281Z,-0.50
2023-03-02T02:46:55.543Z,-0.50
2023-03-02T02:49:31.371Z,-0.50
2023-03-02T02:51:59.765Z,-0.50
2023-03-02T02:54:28.274Z,-0.50
2023-03-02T02:56:57.251Z,-0.50
2023-03-02T02:59:31.686Z,-0.40
2023-03-02T03:01:59.991Z,-0.40
2023-03-02T03:04:32.725Z,-0.40
2023-03-02T03:07:02.826Z,-0.40
2023-03-02T03:09:31.195Z,-0.40
2023-03-02T03:12:01.044Z,-0.40
2023-03-02T03:14:47.444Z,-0.40
2023-03-02T03:17:14.497Z,-0.50
2023-03-02T03:19:44.556Z,-0.40
2023-03-02T03:22:14.628Z,-0.40
2023-03-02T03:24:43.513Z,-0.40
2023-03-02T03:27:13.964Z,-0.40
2023-03-02T03:29:44.352Z,-0.40
2023-03-02T03:32:11.661Z,-0.40
2023-03-02T03:34:41.096Z,-0.40
2023-03-02T03:37:10.988Z,-0.40
2023-03-02T03:39:38.653Z,-0.30
2023-03-02T03:42:06.339Z,-0.30
2023-03-02T03:44:34.602Z,-0.30
2023-03-02T03:47:02.435Z,-0.30
2023-03-02T03:49:29.851Z,-0.20
2023-03-02T03:51:57.084Z,-0.10
2023-03-02T03:54:24.509Z,-0.10
2023-03-02T03:56:51.756Z,-0.20
2023-03-02T03:59:22.298Z,-0.40
2023-03-02T04:01:56.580Z,-0.50
2023-03-02T04:04:27.648Z,-0.50
2023-03-02T04:06:55.544Z,-0.50
2023-03-02T04:09:24.326Z,-0.40
2023-03-02T04:11:54.053Z,-0.30
2023-03-02T04:14:23.213Z,-0.30
2023-03-02T04:16:50.636Z,-0.30
2023-03-02T04:19:18.222Z,-0.30
2023-03-02T04:21:48.908Z,-0.30
2023-03-02T04:24:17.254Z,-0.40
2023-03-02T04:26:45.488Z,-0.60
2023-03-02T04:29:13.576Z,-0.70
2023-03-02T04:31:41.725Z,-0.80
2023-03-02T04:34:09.583Z,-0.80
2023-03-02T04:36:39.397Z,-0.70
2023-03-02T04:39:07.709Z,-0.60
2023-03-02T04:41:35.523Z,-0.60
2023-03-02T04:44:03.075Z,-0.60
2023-03-02T04:46:30.370Z,-0.50
2023-03-02T04:48:57.585Z,-0.50
2023-03-02T04:51:31.577Z,-0.40
2023-03-02T04:54:02.380Z,-0.30
2023-03-02T04:56:30.132Z,-0.30
2023-03-02T04:58:57.961Z,-0.30
2023-03-02T05:01:26.096Z,-0.30
2023-03-02T05:03:53.452Z,-0.30
2023-03-02T05:06:22.084Z,-0.30
2023-03-02T05:08:49.649Z,-0.50
2023-03-02T05:11:26.147Z,-0.50
2023-03-02T05:13:55.927Z,-0.50
2023-03-02T05:16:25.091Z,-0.50
2023-03-02T05:18:52.445Z,-0.50
2023-03-02T05:21:19.926Z,-0.50
2023-03-02T05:23:47.376Z,-0.50
2023-03-02T05:26:15.355Z,-0.50
2023-03-02T05:28:43.372Z,-0.50
2023-03-02T05:31:21.063Z,-0.50
2023-03-02T05:33:48.449Z,-0.50
2023-03-02T05:36:18.918Z,-0.60
2023-03-02T05:38:46.812Z,-0.60
2023-03-02T05:41:14.097Z,-0.60
2023-03-02T05:43:41.359Z,-0.70
2023-03-02T05:46:08.589Z,-0.70
2023-03-02T05:48:35.970Z,-0.70
2023-03-02T05:51:03.130Z,-0.80
2023-03-02T05:53:30.413Z,-0.80
2023-03-02T05:55:57.779Z,-0.80
2023-03-02T05:58:25.078Z,-0.80
2023-03-02T06:00:52.390Z,-0.90
2023-03-02T06:03:19.973Z,-0.90
2023-03-02T06:05:51.150Z,-0.90
2023-03-02T06:08:20.139Z,-0.90
2023-03-02T06:10:47.698Z,-0.90
2023-03-02T06:13:16.005Z,-1.10
2023-03-02T06:15:43.434Z,-1.10
2023-03-02T06:18:12.808Z,-1.20
2023-03-02T06:20:40.738Z,-1.20
2023-03-02T06:23:08.134Z,-1.10
2023-03-02T06:25:37.309Z,-1.00
2023-03-02T06:28:04.715Z,-0.80
2023-03-02T06:30:31.932Z,-0.50
2023-03-02T06:33:00.186Z,-0.20
2023-03-02T06:35:27.547Z,0.00
2023-03-02T06:37:54.928Z,0.20
2023-03-02T06:40:22.249Z,0.50
2023-03-02T06:42:50.371Z,0.80
2023-03-02T06:45:17.894Z,1.10
2023-03-02T06:47:45.288Z,1.30
2023-03-02T06:50:12.640Z,1.60
2023-03-02T06:52:41.132Z,1.80
2023-03-02T06:55:10.965Z,1.90
2023-03-02T06:57:38.301Z,1.60
2023-03-02T07:00:25.862Z,1.30
2023-03-02T07:02:54.810Z,1.10
2023-03-02T07:05:23.820Z,1.00
2023-03-02T07:07:51.777Z,1.00
2023-03-02T07:10:19.237Z,0.90
2023-03-02T07:12:46.611Z,0.90
2023-03-02T07:15:14.622Z,0.90
2023-03-02T07:17:44.222Z,0.90
2023-03-02T07:20:14.468Z,0.90
2023-03-02T07:22:42.508Z,0.90
2023-03-02T07:25:10.951Z,0.90
2023-03-02T07:27:38.483Z,1.00
2023-03-02T07:30:07.240Z,0.90
2023-03-02T07:32:34.900Z,1.00
2023-03-02T07:35:02.187Z,1.00
2023-03-02T07:37:29.743Z,1.00
2023-03-02T07:39:58.697Z,1.10
2023-03-02T07:42:26.805Z,1.10
2023-03-02T07:44:54.502Z,1.10
2023-03-02T07:47:23.007Z,1.20
2023-03-02T07:49:50.393Z,1.30
2023-03-02T07:52:17.695Z,1.30
2023-03-02T07:54:44.986Z,1.40
2023-03-02T07:57:14.144Z,1.50
2023-03-02T07:59:41.476Z,1.50
2023-03-02T08:02:15.100Z,1.50
2023-03-02T08:04:42.536Z,1.60
2023-03-02T08:07:10.194Z,1.60
2023-03-02T08:09:40.124Z,1.70
2023-03-02T08:12:07.396Z,1.70
2023-03-02T08:14:35.845Z,1.80
2023-03-02T08:17:05.463Z,1.80
2023-03-02T08:19:32.857Z,1.90
2023-03-02T08:22:01.034Z,2.00
2023-03-02T08:24:28.420Z,2.10
2023-03-02T08:26:56.338Z,2.20
2023-03-02T08:29:27.518Z,2.30
2023-03-02T08:31:55.055Z,2.40
2023-03-02T08:34:22.454Z,2.50
2023-03-02T08:36:49.641Z,2.60
2023-03-02T08:39:16.865Z,2.60
2023-03-02T08:41:44.236Z,2.70
2023-03-02T08:44:11.583Z,2.80
2023-03-02T08:46:38.785Z,2.80
2023-03-02T08:49:06.128Z,2.80
2023-03-02T08:51:33.797Z,3.00
2023-03-02T08:54:01.535Z,3.10
2023-03-02T08:56:32.255Z,3.20
2023-03-02T08:59:03.165Z,3.30
2023-03-02T09:01:34.054Z,3.40
2023-03-02T09:04:02.681Z,3.50
2023-03-02T09:06:32.269Z,3.60
2023-03-02T09:08:59.567Z,3.70
2023-03-02T09:11:26.966Z,3.80
2023-03-02T09:13:55.149Z,3.90
2023-03-02T09:16:24.500Z,3.90
2023-03-02T09:18:51.855Z,4.00
2023-03-02T09:21:19.336Z,4.10
2023-03-02T09:23:47.536Z,4.30
2023-03-02T09:26:14.791Z,4.30
2023-03-02T09:28:42.038Z,4.50
2023-03-02T09:31:09.509Z,4.50
2023-03-02T09:33:37.154Z,4.60
2023-03-02T09:36:09.547Z,4.70
2023-03-02T09:38:36.814Z,4.80
2023-03-02T09:41:31.328Z,5.00
2023-03-02T09:44:30.256Z,5.10
2023-03-02T09:47:05.145Z,5.20
2023-03-02T09:49:57.252Z,5.20
2023-03-02T09:52:47.114Z,5.40
2023-03-02T09:55:25.848Z,5.50
2023-03-02T09:57:55.141Z,5.60
2023-03-02T10:00:30.906Z,5.60
2023-03-02T10:03:17.943Z,5.60
2023-03-02T10:05:46.455Z,5.70
2023-03-02T10:08:27.422Z,5.80
2023-03-02T10:10:54.634Z,5.80
2023-03-02T10:13:47.644Z,5.80
2023-03-02T10:16:49.579Z,6.00
2023-03-02T10:19:41.903Z,6.00
2023-03-02T10:22:29.296Z,6.10
2023-03-02T10:25:24.424Z,6.20
2023-03-02T10:27:57.922Z,6.30
2023-03-02T10:30:36.944Z,6.30
2023-03-02T10:33:19.838Z,6.40
2023-03-02T10:35:50.517Z,6.40
2023-03-02T10:38:23.443Z,6.60
2023-03-02T10:41:03.072Z,6.70
2023-03-02T10:43:44.258Z,6.90
2023-03-02T10:46:13.466Z,7.10
2023-03-02T10:48:51.282Z,7.20
2023-03-02T10:51:27.965Z,7.40
2023-03-02T10:54:11.863Z,7.50
2023-03-02T10:56:42.929Z,7.70
2023-03-02T10:59:26.362Z,7.80
2023-03-02T11:02:25.586Z,7.80
2023-03-02T11:05:18.488Z,7.80
2023-03-02T11:07:58.658Z,7.80
2023-03-02T11:10:36.475Z,8.00
2023-03-02T11:13:17.360Z,8.30
2023-03-02T11:15:50.429Z,8.40
2023-03-02T11:18:38.462Z,8.40
2023-03-02T11:21:13.371Z,8.40
2023-03-02T11:24:10.342Z,8.50
2023-03-02T11:27:00.023Z,8.50
2023-03-02T11:29:41.939Z,8.70
2023-03-02T11:32:09.245Z,8.80
2023-03-02T11:34:41.446Z,8.70
2023-03-02T11:37:20.485Z,8.80
2023-03-02T11:39:55.593Z,9.00
2023-03-02T11:42:30.863Z,9.00
2023-03-02T11:45:01.909Z,9.20
2023-03-02T11:47:31.871Z,9.20
2023-03-02T11:50:05.503Z,9.40
2023-03-02T11:52:38.044Z,9.60
2023-03-02T11:55:28.957Z,9.50
2023-03-02T12:00:43.278Z,9.90
2023-03-02T12:03:16.351Z,10.00
2023-03-02T12:05:46.445Z,10.10
2023-03-02T12:08:19.947Z,10.30
2023-03-02T12:11:04.144Z,10.50
2023-03-02T12:13:33.007Z,10.50
2023-03-02T12:16:02.216Z,10.70
2023-03-02T12:18:40.719Z,10.80
2023-03-02T12:21:11.875Z,11.00
2023-03-02T12:23:56.194Z,11.10
2023-03-02T12:26:37.576Z,11.30
2023-03-02T12:29:10.075Z,11.80
2023-03-02T12:31:40.290Z,11.80
2023-03-02T12:34:24.553Z,12.20
2023-03-02T12:37:00.381Z,12.50
2023-03-02T12:40:03.336Z,12.40
2023-03-02T12:42:48.857Z,12.50
2023-03-02T12:45:41.986Z,12.80
2023-03-02T12:48:24.371Z,12.60
2023-03-02T12:50:56.478Z,12.70
2023-03-02T12:53:23.699Z,12.80
2023-03-02T12:55:51.056Z,12.70
2023-03-02T12:58:24.562Z,12.80
2023-03-02T13:00:57.755Z,12.70
2023-03-02T13:03:26.718Z,13.30
2023-03-02T13:06:04.962Z,13.50
2023-03-02T13:08:32.809Z,13.00
2023-03-02T13:11:02.411Z,12.90
2023-03-02T13:13:40.011Z,12.80
2023-03-02T13:16:23.490Z,13.00
2023-03-02T13:18:57.006Z,12.90
2023-03-02T13:21:38.395Z,12.90
2023-03-02T13:24:26.901Z,13.10
2023-03-02T13:27:05.118Z,13.10
2023-03-02T13:29:33.946Z,13.30
2023-03-02T13:32:20.744Z,13.30
2023-03-02T13:34:57.696Z,13.70
2023-03-02T13:37:27.962Z,14.20
2023-03-02T13:39:57.799Z,14.10
2023-03-02T13:42:41.579Z,13.90
2023-03-02T13:45:23.386Z,13.60
2023-03-02T13:47:50.918Z,13.60
2023-03-02T13:50:26.661Z,13.50
2023-03-02T13:52:57.562Z,13.50
2023-03-02T13:55:25.172Z,13.40
2023-03-02T13:57:53.899Z,13.30
2023-03-02T14:00:33.251Z,13.40
2023-03-02T14:03:01.692Z,13.30
2023-03-02T14:05:35.661Z,13.20
2023-03-02T14:08:03.130Z,13.30
2023-03-02T14:10:33.463Z,13.40
2023-03-02T14:13:31.104Z,13.50
2023-03-02T14:15:58.306Z,13.50
2023-03-02T14:18:47.453Z,13.40
2023-03-02T14:21:20.778Z,13.20
2023-03-02T14:23:48.427Z,13.20
2023-03-02T14:26:36.214Z,13.30
2023-03-02T14:29:27.690Z,13.50
2023-03-02T14:32:00.749Z,13.30
2023-03-02T14:34:27.940Z,13.10
2023-03-02T14:36:58.390Z,13.10
2023-03-02T14:39:38.663Z,13.20
2023-03-02T14:42:11.170Z,13.20
2023-03-02T14:44:38.254Z,13.10
2023-03-02T14:47:05.669Z,12.90
2023-03-02T14:49:38.724Z,12.80
2023-03-02T14:52:08.916Z,12.70
2023-03-02T14:54:46.644Z,12.70
2023-03-02T14:57:22.593Z,12.30
2023-03-02T14:59:49.838Z,12.40
2023-03-02T15:02:25.324Z,12.40
2023-03-02T15:04:56.531Z,12.40
2023-03-02T15:07:26.015Z,12.30
2023-03-02T15:09:54.892Z,12.20
2023-03-02T15:12:22.184Z,12.20
2023-03-02T15:14:49.541Z,12.30
2023-03-02T15:17:17.789Z,12.30
2023-03-02T15:19:45.091Z,12.30
2023-03-02T15:22:16.332Z,12.20
2023-03-02T15:24:43.825Z,12.20
2023-03-02T15:27:11.166Z,12.20
2023-03-02T15:29:38.559Z,12.10
2023-03-02T15:32:06.402Z,12.10
2023-03-02T15:34:33.773Z,12.10
2023-03-02T15:37:01.113Z,11.80
2023-03-02T15:39:28.464Z,11.50
2023-03-02T15:41:56.560Z,11.40
2023-03-02T15:44:25.001Z,11.50
2023-03-02T15:46:57.078Z,11.40
2023-03-02T15:49:29.697Z,11.30
2023-03-02T15:52:00.675Z,11.30
2023-03-02T15:54:28.898Z,11.20
2023-03-02T15:56:56.896Z,10.90
2023-03-02T15:59:26.839Z,10.70
2023-03-02T16:01:55.481Z,10.70
2023-03-02T16:04:22.951Z,10.50
2023-03-02T16:06:50.319Z,10.40
2023-03-02T16:09:17.653Z,10.40
2023-03-02T16:11:45.071Z,10.40
2023-03-02T16:14:15.940Z,10.30
2023-03-02T16:16:44.552Z,10.10
2023-03-02T16:19:14.227Z,9.90
2023-03-02T16:21:41.735Z,9.80
2023-03-02T16:24:13.727Z,9.70
2023-03-02T16:26:41.331Z,9.60
2023-03-02T16:29:08.642Z,9.50
2023-03-02T16:31:38.180Z,9.50
2023-03-02T16:34:09.081Z,9.40
2023-03-02T16:36:38.321Z,9.30
2023-03-02T16:39:06.624Z,9.20
2023-03-02T16:41:35.848Z,9.10
2023-03-02T16:44:03.418Z,8.90
2023-03-02T16:46:36.486Z,8.90
2023-03-02T16:49:05.778Z,8.80
2023-03-02T16:51:33.886Z,8.60
2023-03-02T16:54:01.197Z,8.50
2023-03-02T16:56:28.683Z,8.50
2023-03-02T16:58:56.927Z,8.40
2023-03-02T17:01:25.225Z,8.20
2023-03-02T17:03:52.794Z,8.10
2023-03-02T17:06:22.601Z,8.00
2023-03-02T17:08:51.009Z,7.90
2023-03-02T17:11:19.205Z,7.80
2023-03-02T17:13:46.789Z,7.70
2023-03-02T17:16:14.444Z,7.70
2023-03-02T17:18:42.055Z,7.50
2023-03-02T17:21:09.412Z,7.50
2023-03-02T17:23:38.107Z,7.40
2023-03-02T17:26:05.917Z,7.40
2023-03-02T17:28:33.365Z,7.30
2023-03-02T17:31:02.390Z,7.10
2023-03-02T17:33:34.749Z,7.00
2023-03-02T17:36:12.230Z,6.90
2023-03-02T17:38:44.063Z,6.80
2023-03-02T17:41:15.795Z,6.80
2023-03-02T17:43:48.195Z,6.80
2023-03-02T17:46:20.823Z,6.80
2023-03-02T17:48:51.873Z,6.80
2023-03-02T17:51:21.723Z,6.80
2023-03-02T17:53:50.985Z,6.70
2023-03-02T17:56:31.674Z,6.70
2023-03-02T17:59:07.047Z,6.50
2023-03-02T18:01:38.124Z,6.40
2023-03-02T18:04:06.104Z,6.40
2023-03-02T18:06:34.421Z,6.30
2023-03-02T18:09:12.431Z,6.30
2023-03-02T18:11:42.747Z,6.20
2023-03-02T18:14:15.649Z,6.10
2023-03-02T18:16:43.387Z,6.20
2023-03-02T18:19:11.152Z,6.20
2023-03-02T18:21:50.973Z,6.10
2023-03-02T18:24:25.690Z,6.00
2023-03-02T18:26:55.554Z,5.90
2023-03-02T18:29:23.264Z,5.80
2023-03-02T18:31:55.494Z,5.80
2023-03-02T18:34:25.982Z,5.80
2023-03-02T18:36:58.206Z,5.70
2023-03-02T18:39:31.070Z,5.60
2023-03-02T18:41:58.709Z,5.50
2023-03-02T18:44:28.456Z,5.40
2023-03-02T18:47:01.125Z,5.50
2023-03-02T18:49:31.536Z,5.50
2023-03-02T18:52:06.980Z,5.50
2023-03-02T18:54:37.319Z,5.50
2023-03-02T18:57:07.788Z,5.50
2023-03-02T18:59:36.030Z,5.40
2023-03-02T19:02:11.041Z,5.40
2023-03-02T19:04:46.023Z,5.30
2023-03-02T19:07:14.527Z,5.20
2023-03-02T19:09:42.157Z,5.30
2023-03-02T19:12:12.145Z,5.20
2023-03-02T19:14:39.927Z,5.10
2023-03-02T19:17:07.613Z,5.10
2023-03-02T19:19:37.582Z,5.10
2023-03-02T19:22:11.072Z,5.00
2023-03-02T19:24:38.694Z,5.00
2023-03-02T19:27:18.319Z,5.00
2023-03-02T19:29:48.782Z,4.90
2023-03-02T19:32:16.589Z,4.90
2023-03-02T19:34:47.997Z,4.90
2023-03-02T19:37:16.084Z,4.90
2023-03-02T19:39:43.920Z,4.90
2023-03-02T19:42:16.634Z,4.80
2023-03-02T19:44:44.224Z,4.80
2023-03-02T19:47:11.935Z,4.80
2023-03-02T19:49:39.276Z,4.80
2023-03-02T19:52:09.730Z,4.70
2023-03-02T19:54:43.312Z,4.60
2023-03-02T19:57:14.094Z,4.60
2023-03-02T19:59:41.732Z,4.60
2023-03-02T20:02:09.439Z,4.50
2023-03-02T20:04:42.873Z,4.40
2023-03-02T20:07:11.157Z,4.40
2023-03-02T20:09:39.003Z,4.40
2023-03-02T20:12:08.579Z,4.30
2023-03-02T20:14:37.040Z,4.20
2023-03-02T20:17:05.076Z,4.20
2023-03-02T20:19:32.518Z,4.20
2023-03-02T20:21:59.654Z,4.20
2023-03-02T20:24:29.548Z,4.10
2023-03-02T20:26:56.897Z,4.10
2023-03-02T20:29:24.403Z,4.00
2023-03-02T20:31:54.767Z,4.00
2023-03-02T20:34:22.603Z,4.00
2023-03-02T20:36:50.347Z,3.90
2023-03-02T20:39:25.447Z,3.90
2023-03-02T20:41:52.965Z,3.90
2023-03-02T20:44:21.313Z,3.90
2023-03-02T20:46:55.821Z,3.80
2023-03-02T20:49:28.814Z,3.80
2023-03-02T20:52:00.819Z,3.80
2023-03-02T20:54:32.002Z,3.80
2023-03-02T20:57:02.198Z,3.70
2023-03-02T20:59:30.171Z,3.70
2023-03-02T21:01:57.954Z,3.60
2023-03-02T21:04:25.650Z,3.50
2023-03-02T21:06:55.566Z,3.50
2023-03-02T21:09:23.920Z,3.40
2023-03-02T21:11:52.177Z,3.30
2023-03-02T21:14:19.804Z,3.20
2023-03-02T21:16:47.264Z,3.20
2023-03-02T21:19:18.722Z,3.20
2023-03-02T21:21:46.116Z,3.10
2023-03-02T21:24:18.900Z,3.10
2023-03-02T21:26:48.004Z,3.10
2023-03-02T21:29:16.830Z,3.10
2023-03-02T21:31:44.866Z,3.10
2023-03-02T21:34:13.605Z,3.10
2023-03-02T21:36:41.182Z,3.10
2023-03-02T21:39:10.278Z,3.00
2023-03-02T21:41:38.439Z,3.00
2023-03-02T21:44:06.236Z,3.00
2023-03-02T21:46:35.882Z,3.00
2023-03-02T21:49:04.064Z,2.90
2023-03-02T21:51:31.865Z,2.90
2023-03-02T21:53:59.122Z,3.00
2023-03-02T21:56:27.068Z,2.90
2023-03-02T21:58:56.750Z,2.90
2023-03-02T22:01:27.323Z,2.80
2023-03-02T22:03:54.629Z,2.80
2023-03-02T22:06:24.317Z,2.70
2023-03-02T22:08:52.328Z,2.70
2023-03-02T22:11:22.907Z,2.60
2023-03-02T22:13:57.870Z,2.60
2023-03-02T22:16:37.987Z,2.60
2023-03-02T22:19:22.926Z,2.60
2023-03-02T22:21:51.114Z,2.50
2023-03-02T22:24:21.364Z,2.50
2023-03-02T22:26:55.095Z,2.40
2023-03-02T22:29:30.204Z,2.40
2023-03-02T22:32:06.774Z,2.40
2023-03-02T22:34:36.875Z,2.40
2023-03-02T22:37:15.337Z,2.40
2023-03-02T22:39:42.631Z,2.30
2023-03-02T22:42:22.749Z,2.20
2023-03-02T22:45:13.064Z,2.10
2023-03-02T22:47:40.556Z,2.10
2023-03-02T22:50:25.372Z,2.10
2023-03-02T22:52:53.816Z,2.00
2023-03-02T22:55:41.198Z,1.90
2023-03-02T22:58:20.760Z,1.80
2023-03-02T23:00:48.658Z,1.80
2023-03-02T23:03:22.594Z,1.60
2023-03-02T23:05:53.258Z,1.40
2023-03-02T23:08:31.592Z,1.30
2023-03-02T23:10:59.584Z,1.20
2023-03-02T23:13:38.213Z,1.20
2023-03-02T23:16:20.167Z,1.10
2023-03-02T23:18:50.776Z,1.10
2023-03-02T23:21:23.180Z,1.20
2023-03-02T23:23:51.065Z,1.30
2023-03-02T23:26:19.860Z,1.40
2023-03-02T23:28:48.828Z,1.40
2023-03-02T23:31:18.619Z,1.30
2023-03-02T23:33:46.480Z,1.20
2023-03-02T23:36:14.515Z,1.20
2023-03-02T23:38:41.920Z,1.10
2023-03-02T23:41:11.106Z,1.10
2023-03-02T23:43:39.435Z,1.10
2023-03-02T23:46:06.730Z,1.10
2023-03-02T23:48:34.807Z,1.00
2023-03-02T23:51:02.219Z,0.90
2023-03-02T23:53:29.341Z,0.90
2023-03-02T23:55:56.461Z,0.90
2023-03-02T23:58:24.283Z,0.90
